Time;durP1;ratioP1;P1;durP2;ratioP2;P2;SDS_P1;SDS_P2;PMS_P1;PMS_P2;Temp;Humidity;BMP_temperature;BMP_pressure;BME280_temperature;BME280_humidity;BME280_pressure;Samples;Min_cycle;Max_cycle;Signal;HPM_P1;HPM_P2
2022/01/28 05:02:55;;;;;;;4.47;1.95;;;5.20;99.90;;;;;;4995944;23;20272;-69
2022/01/28 05:27:48;;;;;;;6.40;2.30;;;5.10;99.90;;;;;;4935574;28;20236;-69
2022/01/28 05:30:14;;;;;;;11.23;1.88;;;5.10;99.90;;;;;;4952860;28;20707;-69
2022/01/28 05:32:42;;;;;;;5.20;2.45;;;5.10;99.90;;;;;;4955451;29;20733;-68
2022/01/28 05:35:10;;;;;;;8.70;2.25;;;5.00;99.90;;;;;;4956234;28;20209;-68
2022/01/28 05:37:37;;;;;;;8.25;2.75;;;5.10;99.90;;;;;;4955931;28;20210;-68
2022/01/28 05:40:04;;;;;;;10.82;3.13;;;5.00;99.90;;;;;;4953562;28;20206;-69
2022/01/28 05:42:31;;;;;;;6.85;1.55;;;5.10;99.90;;;;;;4957414;28;20276;-68
2022/01/28 05:44:58;;;;;;;5.97;1.95;;;5.10;99.90;;;;;;4956371;29;20225;-68
2022/01/28 05:47:25;;;;;;;8.70;1.80;;;5.20;99.90;;;;;;4956582;28;20264;-68
2022/01/28 05:49:51;;;;;;;7.28;2.15;;;5.20;99.90;;;;;;4955753;28;20251;-68
2022/01/28 05:52:19;;;;;;;12.82;3.08;;;5.20;99.90;;;;;;4937327;29;20222;-68
2022/01/28 05:54:46;;;;;;;10.30;2.78;;;5.20;99.90;;;;;;4946860;29;20201;-68
2022/01/28 05:57:13;;;;;;;5.60;2.35;;;5.20;99.90;;;;;;4956069;28;20252;-70
2022/01/28 05:59:39;;;;;;;6.80;1.80;;;5.20;99.90;;;;;;4955491;28;20590;-69
2022/01/28 06:02:06;;;;;;;13.35;4.05;;;5.20;99.90;;;;;;4955769;28;20236;-68
2022/01/28 06:04:35;;;;;;;7.30;2.03;;;5.30;99.90;;;;;;4954966;28;20198;-68
2022/01/28 06:07:02;;;;;;;9.68;2.53;;;5.30;99.90;;;;;;4951428;28;20692;-68
2022/01/28 06:09:30;;;;;;;7.63;2.13;;;5.30;99.90;;;;;;4944201;28;20202;-68
2022/01/28 06:11:57;;;;;;;8.27;2.00;;;5.20;99.90;;;;;;4955775;28;20240;-68
2022/01/28 06:14:23;;;;;;;9.73;2.55;;;5.20;99.90;;;;;;4955205;28;20256;-69
2022/01/28 06:16:50;;;;;;;5.90;1.80;;;5.20;99.90;;;;;;4956130;28;20202;-70
2022/01/28 06:19:17;;;;;;;7.93;1.90;;;5.10;99.90;;;;;;4955361;29;20205;-69
2022/01/28 06:21:44;;;;;;;12.98;2.60;;;5.10;99.90;;;;;;4955230;28;20229;-68
2022/01/28 06:24:11;;;;;;;6.93;2.50;;;5.00;99.90;;;;;;4953450;28;20646;-67
2022/01/28 06:26:40;;;;;;;5.70;2.88;;;5.00;99.90;;;;;;4955241;28;20251;-69
2022/01/28 06:29:07;;;;;;;5.47;1.75;;;5.00;99.90;;;;;;4954233;28;20633;-68
2022/01/28 06:31:33;;;;;;;4.05;2.15;;;5.00;99.90;;;;;;4939616;28;20368;-68
2022/01/28 06:34:00;;;;;;;9.10;4.22;;;5.00;99.90;;;;;;4937883;29;20209;-68
2022/01/28 06:36:27;;;;;;;4.93;2.25;;;5.00;99.90;;;;;;4955964;28;20263;-68
2022/01/28 06:38:53;;;;;;;8.10;2.70;;;5.00;99.90;;;;;;4955748;28;20205;-68
2022/01/28 06:41:20;;;;;;;4.20;2.00;;;5.00;99.90;;;;;;4953491;28;20229;-69
2022/01/28 06:43:48;;;;;;;10.88;2.92;;;5.00;99.90;;;;;;4955507;28;20681;-69
2022/01/28 06:46:15;;;;;;;7.75;1.98;;;5.00;99.90;;;;;;4947786;29;20294;-68
2022/01/28 06:48:41;;;;;;;9.68;2.50;;;5.00;99.90;;;;;;4936179;29;20262;-67
2022/01/28 06:51:08;;;;;;;7.93;2.15;;;5.00;99.90;;;;;;4953570;29;20280;-69
2022/01/28 06:53:35;;;;;;;12.38;4.22;;;5.00;99.90;;;;;;4955442;28;20650;-68
2022/01/28 06:56:01;;;;;;;6.25;1.85;;;5.00;99.90;;;;;;4954316;28;20562;-68
2022/01/28 06:58:28;;;;;;;5.65;2.42;;;5.00;99.90;;;;;;4954592;28;20213;-70
2022/01/28 07:00:56;;;;;;;10.45;2.65;;;5.00;99.90;;;;;;4948839;28;20284;-68
2022/01/28 07:03:23;;;;;;;9.80;1.92;;;5.00;99.90;;;;;;4945588;28;20217;-69
2022/01/28 07:05:49;;;;;;;7.32;2.70;;;5.00;99.90;;;;;;4949558;29;20705;-69
2022/01/28 07:08:16;;;;;;;13.52;2.80;;;5.10;99.90;;;;;;4954880;28;20206;-70
2022/01/28 07:10:43;;;;;;;4.40;1.70;;;5.00;99.90;;;;;;4951763;28;20220;-70
2022/01/28 07:13:09;;;;;;;7.10;2.70;;;5.00;99.90;;;;;;4943338;29;20201;-69
2022/01/28 07:15:36;;;;;;;7.55;1.65;;;5.10;99.90;;;;;;4954476;28;20197;-70
2022/01/28 07:18:04;;;;;;;6.88;2.97;;;5.10;99.90;;;;;;4953509;29;20209;-70
2022/01/28 07:20:33;;;;;;;2.67;1.90;;;5.10;99.90;;;;;;4948101;29;20308;-69
2022/01/28 07:23:01;;;;;;;7.55;2.63;;;5.10;99.90;;;;;;4948904;28;20214;-69
2022/01/28 07:25:28;;;;;;;2.78;2.22;;;5.10;99.90;;;;;;4952135;28;20652;-68
2022/01/28 07:27:55;;;;;;;10.48;2.42;;;5.10;99.90;;;;;;4953883;28;20210;-69
2022/01/28 07:30:21;;;;;;;8.48;2.72;;;5.10;99.90;;;;;;4950454;28;20206;-70
2022/01/28 07:32:49;;;;;;;4.60;1.67;;;5.20;99.90;;;;;;4949160;29;20209;-70
2022/01/28 07:35:18;;;;;;;5.10;2.20;;;5.10;99.90;;;;;;4944017;29;20226;-70
2022/01/28 07:37:44;;;;;;;10.75;2.97;;;5.20;99.90;;;;;;4954561;28;20260;-69
2022/01/28 07:40:12;;;;;;;3.65;1.73;;;5.20;99.90;;;;;;4953536;28;20280;-69
2022/01/28 07:42:39;;;;;;;7.03;2.05;;;5.20;99.90;;;;;;4953783;28;20210;-68
2022/01/28 07:45:08;;;;;;;6.18;2.22;;;5.20;99.90;;;;;;4953147;28;20205;-69
2022/01/28 07:47:36;;;;;;;12.73;2.03;;;5.20;99.90;;;;;;4943461;28;20268;-68
2022/01/28 07:50:04;;;;;;;2.55;1.50;;;5.20;99.90;;;;;;4950472;29;20241;-69
2022/01/28 07:52:32;;;;;;;7.40;2.08;;;5.20;99.90;;;;;;4947629;28;20648;-69
2022/01/28 07:54:59;;;;;;;7.28;1.88;;;5.20;99.90;;;;;;4944452;28;20687;-69
2022/01/28 07:57:25;;;;;;;21.50;2.28;;;5.20;99.90;;;;;;4951097;29;20621;-69
2022/01/28 07:59:52;;;;;;;7.72;2.55;;;5.20;99.90;;;;;;4937191;28;20281;-68
2022/01/28 08:02:19;;;;;;;8.88;3.28;;;5.20;99.90;;;;;;4950512;29;20237;-68
2022/01/28 08:04:45;;;;;;;4.28;2.40;;;5.20;99.90;;;;;;4949105;28;20261;-68
2022/01/28 08:07:12;;;;;;;4.72;2.20;;;5.20;99.90;;;;;;4951074;28;20289;-70
2022/01/28 08:09:40;;;;;;;3.97;1.23;;;5.20;99.90;;;;;;4944011;28;20213;-69
2022/01/28 08:12:08;;;;;;;7.05;2.88;;;5.20;99.90;;;;;;4952982;29;20328;-70
2022/01/28 08:14:35;;;;;;;8.02;2.30;;;5.20;99.90;;;;;;4953334;28;20209;-69
2022/01/28 08:17:01;;;;;;;4.35;1.60;;;5.20;99.90;;;;;;4950697;28;20208;-69
2022/01/28 08:19:28;;;;;;;9.98;2.53;;;5.20;99.90;;;;;;4943766;28;20209;-69
2022/01/28 08:21:55;;;;;;;11.63;2.58;;;5.30;99.90;;;;;;4941768;29;20276;-69
2022/01/28 08:24:21;;;;;;;7.28;2.85;;;5.30;99.90;;;;;;4951454;28;20272;-69
2022/01/28 08:26:50;;;;;;;7.65;2.75;;;5.30;99.90;;;;;;4951034;28;20557;-69
2022/01/28 08:29:16;;;;;;;9.63;2.50;;;5.30;99.90;;;;;;4942486;28;20308;-69
2022/01/28 08:31:43;;;;;;;10.85;3.20;;;5.30;99.90;;;;;;4947701;28;20225;-68
2022/01/28 08:34:10;;;;;;;8.90;1.70;;;5.30;99.90;;;;;;4955126;28;20210;-69
2022/01/28 08:36:36;;;;;;;9.73;2.80;;;5.30;99.90;;;;;;4953430;28;20277;-69
2022/01/28 08:39:05;;;;;;;13.30;3.33;;;5.30;99.90;;;;;;4953556;28;20256;-70
2022/01/28 08:41:32;;;;;;;10.77;2.90;;;5.30;99.90;;;;;;4943336;28;20222;-69
2022/01/28 08:44:00;;;;;;;10.52;2.30;;;5.40;99.90;;;;;;4934225;29;20210;-70
2022/01/28 08:46:27;;;;;;;9.40;3.42;;;5.40;99.90;;;;;;4949964;29;20221;-69
2022/01/28 08:48:54;;;;;;;11.75;2.65;;;5.40;99.90;;;;;;4943605;28;20209;-70
2022/01/28 08:51:20;;;;;;;8.27;2.78;;;5.40;99.90;;;;;;4942226;29;20238;-69
2022/01/28 08:53:47;;;;;;;15.23;2.75;;;5.40;99.90;;;;;;4953735;28;20263;-69
2022/01/28 08:56:14;;;;;;;6.38;2.30;;;5.40;99.90;;;;;;4952075;28;20260;-69
2022/01/28 08:58:41;;;;;;;5.78;2.28;;;5.50;99.90;;;;;;4947580;28;20634;-68
2022/01/28 09:01:10;;;;;;;5.95;2.75;;;5.50;99.90;;;;;;4944438;29;20291;-69
2022/01/28 09:03:36;;;;;;;11.13;2.90;;;5.50;99.90;;;;;;4934064;29;20284;-69
2022/01/28 09:06:04;;;;;;;9.98;3.10;;;5.50;99.90;;;;;;4937201;29;20220;-69
2022/01/28 09:08:30;;;;;;;7.28;2.80;;;5.50;99.90;;;;;;4940020;28;20210;-69
2022/01/28 09:11:00;;;;;;;14.85;2.53;;;5.60;99.90;;;;;;4939131;28;20229;-69
2022/01/28 09:13:37;;;;;;;7.38;2.17;;;5.60;99.90;;;;;;4943258;29;20588;-70
2022/01/28 09:16:04;;;;;;;9.80;2.60;;;5.60;99.90;;;;;;4951662;28;20232;-70
2022/01/28 09:18:32;;;;;;;4.30;2.63;;;5.60;99.90;;;;;;4951779;28;20216;-69
2022/01/28 09:20:59;;;;;;;5.22;1.40;;;5.60;99.90;;;;;;4952333;28;20278;-69
2022/01/28 09:23:25;;;;;;;11.23;3.47;;;5.60;99.90;;;;;;4949575;29;20202;-69
2022/01/28 09:25:52;;;;;;;4.70;1.83;;;5.70;99.90;;;;;;4951853;28;20633;-69
2022/01/28 09:28:19;;;;;;;8.27;2.90;;;5.70;99.90;;;;;;4939900;29;20228;-70
2022/01/28 09:30:46;;;;;;;8.60;4.28;;;5.70;99.90;;;;;;4947267;28;20280;-69
2022/01/28 09:33:13;;;;;;;10.18;2.58;;;5.70;99.90;;;;;;4944111;29;20592;-69
2022/01/28 09:35:42;;;;;;;6.65;2.22;;;5.70;99.90;;;;;;4933737;29;20217;-70
2022/01/28 09:38:10;;;;;;;7.63;2.70;;;5.70;99.90;;;;;;4952497;29;20211;-70
2022/01/28 09:40:36;;;;;;;5.28;1.80;;;5.80;99.90;;;;;;4951905;28;20229;-70
2022/01/28 09:43:05;;;;;;;10.45;2.60;;;5.80;99.90;;;;;;4939026;28;20206;-69
2022/01/28 09:45:32;;;;;;;5.63;3.13;;;5.80;99.90;;;;;;4940644;29;20197;-69
2022/01/28 09:47:59;;;;;;;5.18;2.13;;;5.80;99.90;;;;;;4934151;29;20272;-69
2022/01/28 09:50:28;;;;;;;10.32;2.72;;;5.80;99.90;;;;;;4948633;29;20205;-70
2022/01/28 09:52:57;;;;;;;2.97;1.85;;;5.90;99.90;;;;;;4952005;28;20205;-69
2022/01/28 09:55:25;;;;;;;10.95;2.80;;;6.00;99.90;;;;;;4952122;28;20209;-69
2022/01/28 09:57:53;;;;;;;16.45;3.28;;;6.10;99.90;;;;;;4952761;28;20638;-69
2022/01/28 10:00:22;;;;;;;7.85;2.40;;;6.20;99.90;;;;;;4951702;28;20209;-69
2022/01/28 10:02:52;;;;;;;4.18;2.65;;;6.20;99.90;;;;;;4952978;28;20289;-69
2022/01/28 10:05:21;;;;;;;5.95;2.47;;;6.30;99.90;;;;;;4952846;28;20667;-69
2022/01/28 10:08:02;;;;;;;10.55;3.33;;;6.30;99.90;;;;;;4954892;28;20244;-69
2022/01/28 10:10:51;;;;;;;6.45;3.13;;;6.30;99.90;;;;;;4953951;28;20674;-68
2022/01/28 10:13:23;;;;;;;9.98;2.78;;;6.30;99.90;;;;;;4955971;28;20641;-69
2022/01/28 10:15:54;;;;;;;13.25;3.20;;;6.20;99.90;;;;;;4956074;28;20558;-69
2022/01/28 10:18:22;;;;;;;15.68;4.13;;;6.20;99.90;;;;;;4945966;28;20233;-70
2022/01/28 10:20:49;;;;;;;9.60;4.35;;;6.20;99.90;;;;;;4939988;29;20253;-69
2022/01/28 10:23:19;;;;;;;8.25;2.97;;;6.20;99.90;;;;;;4945887;29;20260;-70
2022/01/28 10:25:55;;;;;;;12.30;3.17;;;6.20;99.90;;;;;;4955173;28;20788;-71
2022/01/28 10:28:22;;;;;;;9.10;2.63;;;6.30;99.90;;;;;;4953021;28;20243;-70
2022/01/28 10:30:49;;;;;;;16.25;3.00;;;6.40;99.90;;;;;;4948683;29;20225;-69
2022/01/28 10:33:18;;;;;;;10.40;2.78;;;6.40;99.90;;;;;;4954050;28;20209;-70
2022/01/28 10:35:53;;;;;;;7.78;2.70;;;6.40;99.90;;;;;;4947170;29;20209;-69
2022/01/28 10:38:30;;;;;;;12.80;3.08;;;6.40;99.90;;;;;;4947914;28;20209;-69
2022/01/28 10:41:10;;;;;;;10.50;2.40;;;6.40;99.90;;;;;;4955047;29;20296;-68
2022/01/28 10:43:45;;;;;;;8.68;3.17;;;6.40;99.90;;;;;;4955206;28;20216;-68
2022/01/28 10:46:12;;;;;;;9.75;3.47;;;6.40;99.90;;;;;;4940623;29;20201;-68
2022/01/28 10:48:50;;;;;;;10.68;4.25;;;6.40;99.90;;;;;;4948595;28;20205;-69
2022/01/28 10:51:18;;;;;;;7.70;2.97;;;6.40;99.90;;;;;;4951507;29;20304;-68
2022/01/28 10:54:03;;;;;;;7.30;2.72;;;6.50;99.90;;;;;;4949889;28;20277;-68
2022/01/28 10:56:30;;;;;;;7.47;2.63;;;6.60;99.90;;;;;;4952401;29;20204;-68
2022/01/28 10:58:57;;;;;;;9.73;3.10;;;6.60;99.90;;;;;;4955030;28;20220;-68
2022/01/28 11:01:25;;;;;;;6.95;2.60;;;6.60;99.90;;;;;;4954831;28;20237;-68
2022/01/28 11:03:54;;;;;;;8.95;2.20;;;6.60;99.90;;;;;;4954380;28;20202;-68
2022/01/28 11:06:22;;;;;;;7.53;2.47;;;6.60;99.90;;;;;;4952086;28;20232;-68
2022/01/28 11:08:50;;;;;;;6.18;1.95;;;6.60;99.90;;;;;;4948969;28;20212;-69
2022/01/28 11:11:16;;;;;;;8.60;2.35;;;6.60;99.90;;;;;;4941383;29;20230;-70
2022/01/28 11:13:44;;;;;;;4.72;2.13;;;6.60;99.90;;;;;;4944901;29;20209;-68
2022/01/28 11:16:11;;;;;;;7.53;2.40;;;6.70;99.90;;;;;;4954961;28;20317;-69
2022/01/28 11:18:38;;;;;;;9.18;3.17;;;6.70;99.90;;;;;;4953914;28;20291;-68
2022/01/28 11:21:13;;;;;;;15.40;3.20;;;6.70;99.90;;;;;;4948225;29;20232;-69
2022/01/28 11:23:51;;;;;;;6.50;2.15;;;6.70;99.90;;;;;;4954151;28;20613;-68
2022/01/28 11:26:21;;;;;;;6.47;2.25;;;6.80;99.90;;;;;;4947226;28;20258;-68
2022/01/28 11:28:51;;;;;;;12.88;2.92;;;6.80;99.90;;;;;;4940094;29;20571;-69
2022/01/28 11:31:42;;;;;;;7.30;2.17;;;6.80;99.90;;;;;;4948766;28;20226;-68
2022/01/28 11:34:17;;;;;;;13.47;3.80;;;6.80;99.90;;;;;;4941727;29;20536;-68
2022/01/28 11:36:43;;;;;;;10.70;2.65;;;6.80;99.90;;;;;;4954655;28;20527;-69
2022/01/28 11:39:22;;;;;;;7.20;2.08;;;6.90;99.90;;;;;;4954203;28;20600;-68
2022/01/28 11:42:05;;;;;;;7.55;2.30;;;6.90;99.90;;;;;;4953419;28;20702;-69
2022/01/28 11:44:43;;;;;;;7.03;2.20;;;6.90;99.90;;;;;;4953394;28;20217;-68
2022/01/28 11:47:10;;;;;;;5.53;1.73;;;6.90;99.90;;;;;;4944931;28;20230;-69
2022/01/28 11:49:56;;;;;;;6.90;2.58;;;6.90;99.90;;;;;;4934704;29;20253;-68
2022/01/28 11:52:27;;;;;;;5.47;2.00;;;6.90;99.90;;;;;;4949212;29;20229;-68
2022/01/28 11:54:55;;;;;;;7.50;2.25;;;7.00;99.90;;;;;;4953915;28;20228;-69
2022/01/28 11:57:26;;;;;;;9.88;2.40;;;7.00;99.90;;;;;;4953951;28;20217;-69
2022/01/28 12:00:18;;;;;;;11.18;2.70;;;7.00;99.90;;;;;;4953191;28;20228;-69
2022/01/28 12:02:49;;;;;;;14.75;2.47;;;7.10;99.90;;;;;;4954224;28;20221;-69
2022/01/28 12:05:27;;;;;;;13.10;2.65;;;7.10;99.90;;;;;;4954088;28;20224;-69
2022/01/28 12:07:55;;;;;;;11.95;3.45;;;7.10;99.90;;;;;;4954225;28;20233;-69
2022/01/28 12:10:24;;;;;;;11.35;3.88;;;7.20;99.90;;;;;;4991599;23;20231;-67
2022/01/28 12:12:59;;;;;;;5.80;2.45;;;7.20;99.90;;;;;;4978881;28;20541;-67
2022/01/28 12:15:28;;;;;;;3.95;1.83;;;7.20;99.90;;;;;;4972422;28;20219;-68
2022/01/28 12:18:06;;;;;;;2.50;1.17;;;7.20;99.90;;;;;;4972297;28;20219;-69
2022/01/28 12:20:44;;;;;;;5.50;2.22;;;7.20;99.90;;;;;;4955727;28;20295;-69
2022/01/28 12:23:38;;;;;;;7.30;2.70;;;7.20;99.90;;;;;;4969700;28;20205;-69
2022/01/28 12:26:07;;;;;;;16.92;2.70;;;7.20;99.90;;;;;;4971866;28;20271;-69
2022/01/28 12:28:47;;;;;;;5.50;2.22;;;7.20;99.90;;;;;;4971590;28;20236;-69
2022/01/28 12:31:19;;;;;;;4.20;2.55;;;7.20;99.90;;;;;;4972162;28;20212;-69
2022/01/28 12:33:47;;;;;;;8.52;2.15;;;7.20;99.90;;;;;;4971609;28;20677;-68
2022/01/28 12:36:16;;;;;;;6.05;2.35;;;7.20;99.90;;;;;;4963495;28;20271;-68
2022/01/28 12:38:56;;;;;;;6.95;2.58;;;7.20;99.90;;;;;;4964060;28;20216;-68
2022/01/28 12:41:25;;;;;;;5.47;2.38;;;7.20;99.90;;;;;;4971440;28;20204;-68
2022/01/28 12:43:52;;;;;;;12.30;3.00;;;7.30;99.90;;;;;;4971373;28;20209;-68
2022/01/28 12:46:19;;;;;;;8.18;2.05;;;7.30;99.90;;;;;;4972013;28;20259;-68
2022/01/28 12:48:50;;;;;;;10.98;2.90;;;7.30;99.90;;;;;;4971541;28;20232;-68
2022/01/28 12:51:20;;;;;;;5.95;2.40;;;7.30;99.90;;;;;;4968886;28;20204;-67
2022/01/28 12:53:49;;;;;;;4.85;2.55;;;7.30;99.90;;;;;;4972103;28;20204;-70
2022/01/28 12:56:18;;;;;;;12.63;3.05;;;7.30;99.90;;;;;;4971610;28;20212;-67
2022/01/28 12:58:49;;;;;;;7.82;1.92;;;7.40;99.90;;;;;;4971387;28;20299;-67
2022/01/28 13:01:17;;;;;;;9.90;2.42;;;7.40;99.90;;;;;;4971558;28;20284;-68
2022/01/28 13:03:49;;;;;;;4.00;2.03;;;7.30;99.90;;;;;;4971827;28;20212;-67
2022/01/28 13:06:24;;;;;;;8.38;2.20;;;7.30;99.90;;;;;;4971774;28;20223;-69
2022/01/28 13:08:51;;;;;;;5.60;2.97;;;7.30;99.90;;;;;;4960059;28;20229;-69
2022/01/28 13:11:18;;;;;;;10.68;3.38;;;7.20;99.90;;;;;;4968633;28;20632;-68
2022/01/28 13:13:51;;;;;;;11.93;2.55;;;7.20;99.90;;;;;;4969290;28;20620;-69
2022/01/28 13:16:33;;;;;;;8.70;3.20;;;7.10;99.90;;;;;;4962898;28;20299;-69
2022/01/28 13:19:01;;;;;;;6.68;2.72;;;7.10;99.90;;;;;;4952474;28;20229;-69
2022/01/28 13:21:29;;;;;;;8.13;2.50;;;7.10;99.90;;;;;;4959301;28;20212;-70
2022/01/28 13:24:11;;;;;;;9.88;3.08;;;7.20;99.90;;;;;;4971443;28;20216;-69
2022/01/28 13:26:52;;;;;;;7.53;2.80;;;7.20;99.90;;;;;;4970858;28;20270;-68
2022/01/28 13:29:33;;;;;;;9.52;5.60;;;7.20;99.90;;;;;;4970825;28;20315;-67
2022/01/28 13:32:01;;;;;;;2.58;1.75;;;7.20;99.90;;;;;;4971231;28;20212;-69
2022/01/28 13:34:28;;;;;;;6.60;2.28;;;7.20;99.90;;;;;;4971516;28;20311;-69
2022/01/28 13:36:57;;;;;;;9.80;2.50;;;7.20;99.90;;;;;;4971469;28;20296;-68
2022/01/28 13:39:28;;;;;;;4.53;1.67;;;7.20;99.90;;;;;;4971315;28;20586;-69
2022/01/28 13:42:09;;;;;;;9.57;2.10;;;7.20;99.90;;;;;;4974104;28;20223;-69
2022/01/28 13:44:41;;;;;;;8.82;3.15;;;7.20;99.90;;;;;;4974927;28;20208;-69
2022/01/28 13:47:09;;;;;;;11.63;2.60;;;7.20;99.90;;;;;;4975670;28;20307;-68
2022/01/28 13:49:38;;;;;;;4.60;2.90;;;7.20;99.90;;;;;;4974812;28;20287;-69
2022/01/28 13:52:10;;;;;;;12.43;2.80;;;7.30;99.90;;;;;;4976270;28;20200;-67
2022/01/28 13:54:37;;;;;;;6.38;2.00;;;7.30;99.90;;;;;;4975393;28;20547;-68
2022/01/28 13:57:06;;;;;;;10.75;2.17;;;7.20;99.90;;;;;;4971207;28;20674;-68
2022/01/28 13:59:34;;;;;;;17.45;3.65;;;7.20;99.90;;;;;;4954707;28;20232;-69
2022/01/28 14:02:04;;;;;;;10.13;2.90;;;7.20;99.90;;;;;;4955234;28;20213;-68
2022/01/28 14:04:36;;;;;;;4.43;2.85;;;7.10;99.90;;;;;;4955812;28;20216;-68
2022/01/28 14:07:11;;;;;;;8.88;3.78;;;7.00;99.90;;;;;;4955260;28;20299;-67
2022/01/28 14:09:54;;;;;;;3.20;1.98;;;6.90;99.90;;;;;;4955120;28;20237;-68
2022/01/28 14:12:37;;;;;;;4.30;2.45;;;6.90;99.90;;;;;;4954549;28;20209;-68
2022/01/28 14:15:12;;;;;;;7.57;2.70;;;6.80;99.90;;;;;;4955028;28;20213;-67
2022/01/28 14:17:41;;;;;;;7.30;3.88;;;6.80;99.90;;;;;;4958604;28;20235;-68
2022/01/28 14:20:09;;;;;;;4.20;2.17;;;6.70;99.90;;;;;;4973759;28;20599;-68
2022/01/28 14:22:36;;;;;;;5.32;2.88;;;6.60;99.90;;;;;;4955328;28;20276;-69
2022/01/28 14:25:03;;;;;;;12.65;2.35;;;6.60;99.90;;;;;;4954777;28;20213;-68
2022/01/28 14:27:58;;;;;;;6.68;2.60;;;6.60;99.90;;;;;;4954757;28;20249;-69
2022/01/28 14:30:35;;;;;;;8.48;2.60;;;6.50;99.90;;;;;;4954697;28;20241;-69
2022/01/28 14:33:03;;;;;;;9.02;2.67;;;6.50;99.90;;;;;;4955037;28;20369;-68
2022/01/28 14:35:30;;;;;;;7.97;2.92;;;6.40;99.90;;;;;;4954494;28;20674;-68
2022/01/28 14:37:57;;;;;;;7.43;3.83;;;6.40;99.90;;;;;;4968826;28;20201;-68
2022/01/28 14:40:24;;;;;;;12.77;2.75;;;6.40;99.90;;;;;;4973564;28;20237;-68
2022/01/28 14:42:50;;;;;;;9.48;2.90;;;6.40;99.90;;;;;;4973415;28;20270;-69
2022/01/28 14:45:17;;;;;;;16.85;3.22;;;6.40;99.90;;;;;;4973380;28;20208;-67
2022/01/28 14:47:44;;;;;;;8.57;2.60;;;6.40;99.90;;;;;;4974432;28;20532;-68
2022/01/28 14:50:12;;;;;;;12.55;2.97;;;6.40;99.90;;;;;;4972846;28;20717;-68
2022/01/28 14:52:39;;;;;;;7.07;2.80;;;6.40;99.90;;;;;;4956979;28;20201;-67
2022/01/28 14:55:06;;;;;;;9.43;4.00;;;6.30;99.90;;;;;;4968585;28;20292;-69
2022/01/28 14:57:33;;;;;;;17.23;3.85;;;6.30;99.90;;;;;;4973660;28;20213;-68
2022/01/28 14:59:59;;;;;;;5.65;2.83;;;6.30;99.90;;;;;;4969494;28;20225;-67
2022/01/28 15:02:27;;;;;;;7.72;2.85;;;6.30;99.90;;;;;;4975613;28;20208;-69
2022/01/28 15:04:57;;;;;;;15.85;5.72;;;6.30;99.90;;;;;;4973438;28;20204;-69
2022/01/28 15:07:27;;;;;;;8.93;4.85;;;6.20;99.90;;;;;;4973416;28;20670;-68
2022/01/28 15:09:56;;;;;;;26.75;6.70;;;6.20;99.90;;;;;;4972803;28;20264;-70
2022/01/28 15:12:23;;;;;;;11.82;3.20;;;6.20;99.90;;;;;;4973234;28;20205;-68
2022/01/28 15:14:50;;;;;;;7.93;3.15;;;6.20;99.90;;;;;;4972635;28;20216;-69
2022/01/28 15:17:18;;;;;;;8.00;2.58;;;6.10;99.90;;;;;;4973331;28;20252;-69
2022/01/28 15:19:45;;;;;;;4.35;2.40;;;6.10;99.90;;;;;;4972076;28;20584;-70
2022/01/28 15:22:12;;;;;;;7.05;1.70;;;6.10;99.90;;;;;;4969500;28;20201;-69
2022/01/28 15:24:40;;;;;;;10.25;2.13;;;6.00;99.90;;;;;;4971768;28;20216;-69
2022/01/28 15:27:09;;;;;;;9.02;3.47;;;6.00;99.90;;;;;;4953732;28;20205;-68
2022/01/28 15:29:47;;;;;;;7.68;3.40;;;6.00;99.90;;;;;;4967419;28;20252;-68
2022/01/28 15:35:26;;;;;;;10.20;3.83;;;5.90;99.90;;;;;;4971112;28;20562;-70
2022/01/28 15:37:52;;;;;;;11.25;5.30;;;5.80;99.90;;;;;;4972996;28;20204;-68
2022/01/28 15:40:20;;;;;;;12.18;4.40;;;5.80;99.90;;;;;;4972831;28;20376;-69
2022/01/28 15:42:50;;;;;;;16.15;4.85;;;5.70;99.90;;;;;;4973421;28;20424;-70
2022/01/28 15:45:17;;;;;;;12.95;3.40;;;5.70;99.90;;;;;;4973102;28;20259;-67
2022/01/28 15:47:44;;;;;;;10.98;3.20;;;5.60;99.90;;;;;;4973363;28;20208;-69
2022/01/28 15:50:12;;;;;;;13.45;5.03;;;5.60;99.90;;;;;;4972624;28;20262;-67
2022/01/28 15:52:39;;;;;;;8.52;3.60;;;5.60;99.90;;;;;;4955987;28;20650;-67
2022/01/28 15:55:07;;;;;;;10.82;3.63;;;5.60;99.90;;;;;;4953444;28;20221;-69
2022/01/28 15:57:35;;;;;;;11.38;4.65;;;5.60;99.90;;;;;;4953389;28;20228;-68
2022/01/28 16:00:02;;;;;;;13.35;5.15;;;5.60;99.90;;;;;;4966942;28;20220;-68
2022/01/28 16:02:28;;;;;;;21.38;5.97;;;5.50;99.90;;;;;;4972908;28;20204;-67
2022/01/28 16:04:55;;;;;;;9.15;4.55;;;5.50;99.90;;;;;;4971806;28;20216;-67
2022/01/28 16:07:22;;;;;;;12.50;5.75;;;5.50;99.90;;;;;;4972733;28;20677;-68
2022/01/28 16:09:53;;;;;;;8.43;4.15;;;5.40;99.90;;;;;;4971897;28;20232;-67
2022/01/28 16:12:45;;;;;;;7.35;3.17;;;5.40;99.90;;;;;;4972282;28;20243;-68
2022/01/28 16:15:27;;;;;;;7.53;3.72;;;5.40;99.90;;;;;;4971826;28;20307;-68
2022/01/28 16:17:54;;;;;;;8.00;3.70;;;5.30;99.90;;;;;;4972722;28;20208;-70
2022/01/28 16:20:21;;;;;;;11.85;4.45;;;5.40;99.90;;;;;;4971455;28;20807;-68
2022/01/28 16:22:47;;;;;;;22.63;5.63;;;5.30;99.90;;;;;;4972392;28;20226;-68
2022/01/28 16:25:15;;;;;;;9.57;4.00;;;5.30;99.90;;;;;;4971979;28;20208;-70
2022/01/28 16:27:42;;;;;;;17.85;4.43;;;5.30;99.90;;;;;;4972744;28;20223;-69
2022/01/28 16:30:09;;;;;;;7.63;3.60;;;5.30;99.90;;;;;;4971795;28;20568;-68
2022/01/28 16:32:37;;;;;;;8.82;3.45;;;5.30;99.90;;;;;;4969923;28;20212;-69
2022/01/28 16:35:05;;;;;;;13.85;4.70;;;5.30;99.90;;;;;;4972106;28;20208;-69
2022/01/28 16:37:32;;;;;;;6.90;3.38;;;5.30;99.90;;;;;;4971949;28;20212;-69
2022/01/28 16:39:58;;;;;;;8.45;3.45;;;5.30;99.90;;;;;;4971659;28;20221;-68
2022/01/28 16:42:29;;;;;;;11.48;3.80;;;5.30;99.90;;;;;;4971352;28;20215;-69
2022/01/28 16:44:55;;;;;;;10.95;4.60;;;5.30;99.90;;;;;;4971677;28;20212;-68
2022/01/28 16:47:23;;;;;;;5.97;3.60;;;5.30;99.90;;;;;;4960183;28;20833;-69
2022/01/28 16:49:52;;;;;;;12.30;3.80;;;5.40;99.90;;;;;;4964577;28;20228;-67
2022/01/28 16:52:20;;;;;;;9.93;4.18;;;5.30;99.90;;;;;;4957412;28;20212;-68
2022/01/28 16:54:47;;;;;;;6.95;3.65;;;5.30;99.90;;;;;;4952177;28;20205;-67
2022/01/28 16:57:15;;;;;;;8.93;3.55;;;5.30;99.90;;;;;;4951944;28;20273;-69
2022/01/28 16:59:43;;;;;;;6.78;3.90;;;5.30;99.90;;;;;;4951790;28;20233;-67
2022/01/28 17:02:10;;;;;;;4.18;3.60;;;5.30;99.90;;;;;;4952360;28;20272;-68
2022/01/28 17:04:37;;;;;;;8.55;3.10;;;5.30;99.90;;;;;;4952417;28;20213;-68
2022/01/28 17:07:06;;;;;;;7.85;3.20;;;5.40;99.90;;;;;;4952440;28;20217;-68
2022/01/28 17:09:45;;;;;;;9.07;2.90;;;5.30;99.90;;;;;;4951537;28;20264;-67
2022/01/28 17:12:35;;;;;;;7.45;3.58;;;5.30;99.90;;;;;;4951721;28;20216;-69
2022/01/28 17:15:03;;;;;;;13.20;5.40;;;5.30;99.90;;;;;;4951792;28;20702;-68
2022/01/28 17:17:30;;;;;;;6.32;3.63;;;5.30;99.90;;;;;;4956054;28;20291;-70
2022/01/28 17:19:57;;;;;;;10.02;5.78;;;5.30;99.90;;;;;;4966636;28;20221;-68
2022/01/28 17:22:25;;;;;;;9.57;5.53;;;5.30;99.90;;;;;;4975545;28;20657;-68
2022/01/28 17:24:51;;;;;;;15.13;5.72;;;5.30;99.90;;;;;;4972679;28;20216;-68
2022/01/28 17:27:18;;;;;;;17.98;5.35;;;5.30;99.90;;;;;;4955204;28;20327;-68
2022/01/28 17:29:49;;;;;;;18.90;5.53;;;5.30;99.90;;;;;;4955137;28;20733;-68
2022/01/28 17:32:16;;;;;;;14.55;6.63;;;5.30;99.90;;;;;;4955740;28;20284;-68
2022/01/28 17:34:42;;;;;;;25.25;10.60;;;5.30;99.90;;;;;;4955845;28;20584;-68
2022/01/28 17:37:12;;;;;;;15.90;6.53;;;5.40;99.90;;;;;;4970969;28;20495;-68
2022/01/28 17:39:42;;;;;;;18.17;7.80;;;5.40;99.90;;;;;;4955812;28;20236;-67
2022/01/28 17:42:09;;;;;;;18.40;7.82;;;5.40;99.90;;;;;;4955330;28;20231;-69
2022/01/28 17:44:36;;;;;;;10.52;5.63;;;5.40;99.90;;;;;;4955304;28;20300;-68
2022/01/28 17:47:03;;;;;;;16.83;6.25;;;5.40;99.90;;;;;;4955755;28;20209;-68
2022/01/28 17:49:30;;;;;;;8.05;3.60;;;5.40;99.90;;;;;;4965111;28;20311;-69
2022/01/28 17:51:58;;;;;;;11.98;4.75;;;5.40;99.90;;;;;;4963510;28;20213;-68
2022/01/28 17:54:24;;;;;;;13.00;5.20;;;5.40;99.90;;;;;;4955459;28;20213;-67
2022/01/28 17:56:52;;;;;;;8.50;3.38;;;5.40;99.90;;;;;;4956175;28;20251;-68
2022/01/28 17:59:20;;;;;;;14.52;4.60;;;5.40;99.90;;;;;;4974125;28;20225;-69
2022/01/28 18:01:46;;;;;;;7.78;3.63;;;5.30;99.90;;;;;;4972036;28;20215;-68
2022/01/28 18:04:13;;;;;;;10.32;4.25;;;5.40;99.90;;;;;;4972552;28;20200;-68
2022/01/28 18:06:40;;;;;;;8.20;4.60;;;5.40;99.90;;;;;;4966374;28;20673;-68
2022/01/28 18:09:06;;;;;;;11.00;5.75;;;5.30;99.90;;;;;;4974263;28;20324;-68
2022/01/28 18:11:33;;;;;;;11.70;4.57;;;5.30;99.90;;;;;;4973793;28;20267;-68
2022/01/28 18:14:01;;;;;;;15.23;5.03;;;5.30;99.90;;;;;;4973980;28;20211;-68
2022/01/28 18:16:28;;;;;;;11.77;4.30;;;5.30;99.90;;;;;;4954988;28;20209;-67
2022/01/28 18:18:55;;;;;;;17.25;4.82;;;5.30;99.90;;;;;;4961531;28;20213;-69
2022/01/28 18:21:21;;;;;;;11.75;3.50;;;5.30;99.90;;;;;;4974302;28;20255;-69
2022/01/28 18:23:48;;;;;;;10.80;4.68;;;5.30;99.90;;;;;;4974669;28;20240;-67
2022/01/28 18:26:15;;;;;;;7.05;3.90;;;5.20;99.90;;;;;;4971559;28;20252;-71
2022/01/28 18:28:41;;;;;;;10.60;3.88;;;5.20;99.90;;;;;;4967459;28;20201;-69
2022/01/28 18:31:10;;;;;;;5.40;3.53;;;5.20;99.90;;;;;;4970114;28;20584;-68